sensor_id;sensor_type;location;lat;lon;timestamp;P1;durP1;ratioP1;P2;durP2;ratioP2
66870;SDS011;53780;44.998;9.926;2022-10-26T00:00:25;22.75;;;10.27;;
66870;SDS011;53780;44.998;9.926;2022-10-26T00:03:30;23.15;;;10.07;;
66870;SDS011;53780;44.998;9.926;2022-10-26T00:06:34;18.70;;;9.48;;
66870;SDS011;53780;44.998;9.926;2022-10-26T00:09:38;22.50;;;9.33;;
66870;SDS011;53780;44.998;9.926;2022-10-26T00:12:42;21.92;;;9.50;;
66870;SDS011;53780;44.998;9.926;2022-10-26T07:29:01;24.95;;;13.13;;
66870;SDS011;53780;44.998;9.926;2022-10-26T07:32:05;27.25;;;13.52;;
66870;SDS011;53780;44.998;9.926;2022-10-26T07:35:09;27.00;;;14.32;;
66870;SDS011;53780;44.998;9.926;2022-10-26T07:38:13;23.15;;;13.68;;
66870;SDS011;53780;44.998;9.926;2022-10-26T07:41:17;22.53;;;12.23;;
66870;SDS011;53780;44.998;9.926;2022-10-26T07:44:21;21.77;;;12.85;;
66870;SDS011;53780;44.998;9.926;2022-10-26T07:47:24;26.48;;;13.00;;
66870;SDS011;53780;44.998;9.926;2022-10-26T07:50:28;26.27;;;13.10;;
66870;SDS011;53780;44.998;9.926;2022-10-26T07:53:32;27.55;;;13.65;;
66870;SDS011;53780;44.998;9.926;2022-10-26T07:56:36;26.13;;;13.90;;
66870;SDS011;53780;44.998;9.926;2022-10-26T07:59:40;24.75;;;13.27;;
66870;SDS011;53780;44.998;9.926;2022-10-26T08:02:44;24.60;;;13.43;;
66870;SDS011;53780;44.998;9.926;2022-10-26T08:05:48;28.30;;;13.63;;
66870;SDS011;53780;44.998;9.926;2022-10-26T08:08:58;27.15;;;13.48;;
66870;SDS011;53780;44.998;9.926;2022-10-26T08:12:02;23.97;;;13.50;;
66870;SDS011;53780;44.998;9.926;2022-10-26T08:15:05;25.52;;;13.32;;
66870;SDS011;53780;44.998;9.926;2022-10-26T08:18:10;23.73;;;12.90;;
66870;SDS011;53780;44.998;9.926;2022-10-26T08:21:14;23.85;;;13.60;;
66870;SDS011;53780;44.998;9.926;2022-10-26T08:24:18;25.40;;;14.07;;
66870;SDS011;53780;44.998;9.926;2022-10-26T08:27:21;27.20;;;14.10;;
66870;SDS011;53780;44.998;9.926;2022-10-26T08:30:25;27.40;;;13.00;;
66870;SDS011;53780;44.998;9.926;2022-10-26T08:33:29;24.05;;;12.82;;
66870;SDS011;53780;44.998;9.926;2022-10-26T08:36:33;24.00;;;12.32;;
66870;SDS011;53780;44.998;9.926;2022-10-26T08:39:36;22.40;;;12.80;;
66870;SDS011;53780;44.998;9.926;2022-10-26T08:42:44;23.30;;;12.70;;
66870;SDS011;53780;44.998;9.926;2022-10-26T08:45:56;22.67;;;12.57;;
66870;SDS011;53780;44.998;9.926;2022-10-26T08:49:17;28.40;;;13.45;;
66870;SDS011;53780;44.998;9.926;2022-10-26T08:52:32;21.70;;;12.88;;
66870;SDS011;53780;44.998;9.926;2022-10-26T08:55:46;27.13;;;13.13;;
66870;SDS011;53780;44.998;9.926;2022-10-26T08:59:00;25.90;;;12.00;;
66870;SDS011;53780;44.998;9.926;2022-10-26T09:02:11;20.85;;;11.45;;
66870;SDS011;53780;44.998;9.926;2022-10-26T09:05:17;21.80;;;12.15;;
66870;SDS011;53780;44.998;9.926;2022-10-26T09:08:29;20.92;;;12.70;;
66870;SDS011;53780;44.998;9.926;2022-10-26T09:15:50;21.43;;;13.37;;
66870;SDS011;53780;44.998;9.926;2022-10-26T09:25:39;23.50;;;13.52;;
66870;SDS011;53780;44.998;9.926;2022-10-26T09:28:44;24.58;;;13.98;;
66870;SDS011;53780;44.998;9.926;2022-10-26T09:31:59;23.40;;;12.83;;
66870;SDS011;53780;44.998;9.926;2022-10-26T09:35:13;23.13;;;13.85;;
66870;SDS011;53780;44.998;9.926;2022-10-26T09:41:37;26.30;;;14.07;;
66870;SDS011;53780;44.998;9.926;2022-10-26T09:48:38;24.30;;;13.47;;
66870;SDS011;53780;44.998;9.926;2022-10-26T09:51:46;27.92;;;13.57;;
66870;SDS011;53780;44.998;9.926;2022-10-26T09:54:50;26.88;;;13.00;;
66870;SDS011;53780;44.998;9.926;2022-10-26T09:57:55;23.83;;;13.90;;
66870;SDS011;53780;44.998;9.926;2022-10-26T10:01:01;25.08;;;13.55;;
66870;SDS011;53780;44.998;9.926;2022-10-26T10:04:13;26.27;;;13.60;;
66870;SDS011;53780;44.998;9.926;2022-10-26T10:07:22;25.23;;;13.20;;
66870;SDS011;53780;44.998;9.926;2022-10-26T10:10:26;28.65;;;14.30;;
66870;SDS011;53780;44.998;9.926;2022-10-26T10:13:38;27.08;;;13.90;;
66870;SDS011;53780;44.998;9.926;2022-10-26T10:17:06;22.98;;;13.10;;
66870;SDS011;53780;44.998;9.926;2022-10-26T10:20:18;24.77;;;12.90;;
66870;SDS011;53780;44.998;9.926;2022-10-26T10:23:26;27.35;;;12.80;;
66870;SDS011;53780;44.998;9.926;2022-10-26T10:26:55;28.42;;;14.10;;
66870;SDS011;53780;44.998;9.926;2022-10-26T10:31:01;24.50;;;12.80;;
66870;SDS011;53780;44.998;9.926;2022-10-26T10:34:15;27.40;;;13.93;;
66870;SDS011;53780;44.998;9.926;2022-10-26T10:40:34;30.50;;;14.05;;
66870;SDS011;53780;44.998;9.926;2022-10-26T10:43:42;25.55;;;14.23;;
66870;SDS011;53780;44.998;9.926;2022-10-26T10:47:02;27.20;;;13.98;;
66870;SDS011;53780;44.998;9.926;2022-10-26T10:53:17;30.43;;;14.67;;
66870;SDS011;53780;44.998;9.926;2022-10-26T11:00:38;29.20;;;14.50;;
66870;SDS011;53780;44.998;9.926;2022-10-26T11:15:09;25.63;;;13.40;;
66870;SDS011;53780;44.998;9.926;2022-10-26T11:18:21;27.98;;;13.80;;
66870;SDS011;53780;44.998;9.926;2022-10-26T11:21:34;25.58;;;13.68;;
66870;SDS011;53780;44.998;9.926;2022-10-26T11:24:48;26.55;;;12.98;;
66870;SDS011;53780;44.998;9.926;2022-10-26T11:28:00;28.17;;;12.97;;
66870;SDS011;53780;44.998;9.926;2022-10-26T11:31:42;29.95;;;12.85;;
66870;SDS011;53780;44.998;9.926;2022-10-26T11:38:09;24.85;;;12.27;;
66870;SDS011;53780;44.998;9.926;2022-10-26T11:41:28;24.85;;;12.77;;
66870;SDS011;53780;44.998;9.926;2022-10-26T11:44:39;25.23;;;13.43;;
66870;SDS011;53780;44.998;9.926;2022-10-26T11:47:53;29.90;;;13.13;;
66870;SDS011;53780;44.998;9.926;2022-10-26T11:51:06;25.60;;;12.35;;
66870;SDS011;53780;44.998;9.926;2022-10-26T11:57:46;26.05;;;11.18;;
66870;SDS011;53780;44.998;9.926;2022-10-26T12:00:52;23.20;;;10.67;;
66870;SDS011;53780;44.998;9.926;2022-10-26T12:04:02;25.88;;;11.52;;
66870;SDS011;53780;44.998;9.926;2022-10-26T12:07:08;25.17;;;11.57;;
66870;SDS011;53780;44.998;9.926;2022-10-26T12:10:38;23.25;;;11.25;;
66870;SDS011;53780;44.998;9.926;2022-10-26T12:20:46;22.90;;;10.98;;
66870;SDS011;53780;44.998;9.926;2022-10-26T12:24:31;23.63;;;10.80;;
66870;SDS011;53780;44.998;9.926;2022-10-26T12:27:29;28.67;;;11.32;;
66870;SDS011;53780;44.998;9.926;2022-10-26T12:30:52;23.73;;;10.88;;
66870;SDS011;53780;44.998;9.926;2022-10-26T12:33:56;18.43;;;8.77;;
66870;SDS011;53780;44.998;9.926;2022-10-26T12:43:37;21.10;;;9.15;;
66870;SDS011;53780;44.998;9.926;2022-10-26T12:46:42;16.98;;;8.63;;
66870;SDS011;53780;44.998;9.926;2022-10-26T12:49:57;18.73;;;8.57;;
66870;SDS011;53780;44.998;9.926;2022-10-26T12:53:21;18.55;;;7.88;;
66870;SDS011;53780;44.998;9.926;2022-10-26T12:56:33;17.35;;;7.80;;
66870;SDS011;53780;44.998;9.926;2022-10-26T12:59:40;17.77;;;7.72;;
66870;SDS011;53780;44.998;9.926;2022-10-26T13:03:00;17.27;;;7.28;;
66870;SDS011;53780;44.998;9.926;2022-10-26T13:06:39;19.03;;;7.47;;
66870;SDS011;53780;44.998;9.926;2022-10-26T13:10:24;18.33;;;7.70;;
66870;SDS011;53780;44.998;9.926;2022-10-26T13:13:29;19.13;;;7.50;;
66870;SDS011;53780;44.998;9.926;2022-10-26T13:16:35;21.15;;;8.63;;
66870;SDS011;53780;44.998;9.926;2022-10-26T13:22:44;28.27;;;9.87;;
66870;SDS011;53780;44.998;9.926;2022-10-26T13:29:16;19.40;;;8.30;;
66870;SDS011;53780;44.998;9.926;2022-10-26T13:32:20;22.85;;;8.77;;
66870;SDS011;53780;44.998;9.926;2022-10-26T13:35:24;35.95;;;12.68;;
66870;SDS011;53780;44.998;9.926;2022-10-26T13:38:30;23.10;;;9.73;;
66870;SDS011;53780;44.998;9.926;2022-10-26T13:41:37;23.90;;;9.70;;
66870;SDS011;53780;44.998;9.926;2022-10-26T13:45:06;27.15;;;11.40;;
66870;SDS011;53780;44.998;9.926;2022-10-26T13:48:25;27.67;;;9.95;;
66870;SDS011;53780;44.998;9.926;2022-10-26T13:51:39;24.10;;;8.90;;
66870;SDS011;53780;44.998;9.926;2022-10-26T13:54:55;27.73;;;10.60;;
66870;SDS011;53780;44.998;9.926;2022-10-26T13:58:44;32.17;;;12.30;;
66870;SDS011;53780;44.998;9.926;2022-10-26T14:01:46;22.63;;;10.32;;
66870;SDS011;53780;44.998;9.926;2022-10-26T14:05:09;23.70;;;10.13;;
66870;SDS011;53780;44.998;9.926;2022-10-26T14:08:16;22.27;;;9.75;;
66870;SDS011;53780;44.998;9.926;2022-10-26T14:11:25;27.17;;;11.20;;
66870;SDS011;53780;44.998;9.926;2022-10-26T14:15:15;29.60;;;11.52;;
66870;SDS011;53780;44.998;9.926;2022-10-26T14:18:26;24.65;;;10.00;;
66870;SDS011;53780;44.998;9.926;2022-10-26T14:21:33;23.17;;;9.63;;
66870;SDS011;53780;44.998;9.926;2022-10-26T14:24:49;23.00;;;9.65;;
66870;SDS011;53780;44.998;9.926;2022-10-26T14:27:54;24.63;;;10.83;;
66870;SDS011;53780;44.998;9.926;2022-10-26T14:34:26;25.30;;;10.07;;
66870;SDS011;53780;44.998;9.926;2022-10-26T14:38:05;23.25;;;9.80;;
66870;SDS011;53780;44.998;9.926;2022-10-26T14:41:03;24.75;;;9.10;;
66870;SDS011;53780;44.998;9.926;2022-10-26T14:44:13;20.90;;;9.10;;
66870;SDS011;53780;44.998;9.926;2022-10-26T14:47:31;25.17;;;9.20;;
66870;SDS011;53780;44.998;9.926;2022-10-26T14:50:36;24.80;;;9.80;;
66870;SDS011;53780;44.998;9.926;2022-10-26T14:53:40;26.98;;;10.07;;
66870;SDS011;53780;44.998;9.926;2022-10-26T14:56:53;24.00;;;10.68;;
66870;SDS011;53780;44.998;9.926;2022-10-26T15:03:23;28.17;;;11.68;;
66870;SDS011;53780;44.998;9.926;2022-10-26T15:13:46;33.53;;;11.40;;
66870;SDS011;53780;44.998;9.926;2022-10-26T15:16:54;37.87;;;12.60;;
66870;SDS011;53780;44.998;9.926;2022-10-26T15:20:04;41.40;;;12.63;;
66870;SDS011;53780;44.998;9.926;2022-10-26T15:23:11;34.78;;;12.63;;
66870;SDS011;53780;44.998;9.926;2022-10-26T15:26:16;37.75;;;12.70;;
66870;SDS011;53780;44.998;9.926;2022-10-26T15:29:37;47.83;;;14.90;;
66870;SDS011;53780;44.998;9.926;2022-10-26T15:32:46;59.83;;;16.93;;
66870;SDS011;53780;44.998;9.926;2022-10-26T15:35:50;46.53;;;15.65;;
66870;SDS011;53780;44.998;9.926;2022-10-26T15:39:08;47.70;;;16.63;;
66870;SDS011;53780;44.998;9.926;2022-10-26T15:42:12;44.63;;;15.27;;
66870;SDS011;53780;44.998;9.926;2022-10-26T15:48:30;42.43;;;14.30;;
66870;SDS011;53780;44.998;9.926;2022-10-26T15:51:34;42.17;;;14.27;;
66870;SDS011;53780;44.998;9.926;2022-10-26T15:54:40;46.40;;;15.65;;
66870;SDS011;53780;44.998;9.926;2022-10-26T15:57:55;45.53;;;16.58;;
66870;SDS011;53780;44.998;9.926;2022-10-26T16:00:59;46.83;;;15.93;;
66870;SDS011;53780;44.998;9.926;2022-10-26T16:04:02;47.53;;;15.50;;
66870;SDS011;53780;44.998;9.926;2022-10-26T16:10:45;43.47;;;14.07;;
66870;SDS011;53780;44.998;9.926;2022-10-26T16:13:50;48.15;;;14.88;;
66870;SDS011;53780;44.998;9.926;2022-10-26T16:16:53;36.65;;;14.15;;
66870;SDS011;53780;44.998;9.926;2022-10-26T16:19:57;39.33;;;13.47;;
66870;SDS011;53780;44.998;9.926;2022-10-26T16:26:50;41.58;;;14.45;;
66870;SDS011;53780;44.998;9.926;2022-10-26T16:29:54;54.97;;;17.08;;
66870;SDS011;53780;44.998;9.926;2022-10-26T16:32:58;46.80;;;15.75;;
66870;SDS011;53780;44.998;9.926;2022-10-26T16:36:04;52.70;;;16.87;;
66870;SDS011;53780;44.998;9.926;2022-10-26T16:39:10;40.17;;;13.25;;
66870;SDS011;53780;44.998;9.926;2022-10-26T16:42:15;37.53;;;14.65;;
66870;SDS011;53780;44.998;9.926;2022-10-26T16:45:19;37.47;;;13.60;;
66870;SDS011;53780;44.998;9.926;2022-10-26T16:48:22;39.47;;;14.50;;
66870;SDS011;53780;44.998;9.926;2022-10-26T16:51:26;47.63;;;16.63;;
66870;SDS011;53780;44.998;9.926;2022-10-26T16:54:30;46.47;;;16.73;;
66870;SDS011;53780;44.998;9.926;2022-10-26T16:57:35;99.60;;;27.85;;
66870;SDS011;53780;44.998;9.926;2022-10-26T17:00:44;55.08;;;16.95;;
66870;SDS011;53780;44.998;9.926;2022-10-26T17:03:49;46.60;;;15.75;;
66870;SDS011;53780;44.998;9.926;2022-10-26T17:06:55;46.97;;;15.83;;
66870;SDS011;53780;44.998;9.926;2022-10-26T17:10:00;43.05;;;14.60;;
66870;SDS011;53780;44.998;9.926;2022-10-26T17:13:04;39.03;;;14.88;;
66870;SDS011;53780;44.998;9.926;2022-10-26T17:19:16;38.67;;;15.00;;
66870;SDS011;53780;44.998;9.926;2022-10-26T17:22:20;34.43;;;14.23;;
66870;SDS011;53780;44.998;9.926;2022-10-26T17:25:24;39.95;;;15.95;;
66870;SDS011;53780;44.998;9.926;2022-10-26T17:28:28;44.15;;;15.70;;
66870;SDS011;53780;44.998;9.926;2022-10-26T17:31:32;42.53;;;16.33;;
66870;SDS011;53780;44.998;9.926;2022-10-26T17:34:36;37.72;;;15.75;;
66870;SDS011;53780;44.998;9.926;2022-10-26T17:37:40;43.53;;;16.37;;
66870;SDS011;53780;44.998;9.926;2022-10-26T17:40:44;42.70;;;16.92;;
66870;SDS011;53780;44.998;9.926;2022-10-26T17:43:48;43.40;;;16.17;;
66870;SDS011;53780;44.998;9.926;2022-10-26T17:46:52;47.85;;;17.00;;
66870;SDS011;53780;44.998;9.926;2022-10-26T17:49:56;39.78;;;15.90;;
66870;SDS011;53780;44.998;9.926;2022-10-26T17:53:02;41.57;;;13.90;;
66870;SDS011;53780;44.998;9.926;2022-10-26T17:56:12;38.53;;;14.98;;
66870;SDS011;53780;44.998;9.926;2022-10-26T17:59:20;39.30;;;15.15;;
66870;SDS011;53780;44.998;9.926;2022-10-26T18:02:24;42.05;;;15.18;;
66870;SDS011;53780;44.998;9.926;2022-10-26T18:05:28;36.78;;;14.50;;
66870;SDS011;53780;44.998;9.926;2022-10-26T18:08:34;36.27;;;15.13;;
66870;SDS011;53780;44.998;9.926;2022-10-26T18:11:43;38.45;;;16.10;;
66870;SDS011;53780;44.998;9.926;2022-10-26T18:14:46;31.05;;;14.50;;
66870;SDS011;53780;44.998;9.926;2022-10-26T18:17:50;33.63;;;13.98;;
66870;SDS011;53780;44.998;9.926;2022-10-26T18:21:04;39.17;;;15.90;;
66870;SDS011;53780;44.998;9.926;2022-10-26T18:24:12;46.03;;;16.40;;
66870;SDS011;53780;44.998;9.926;2022-10-26T18:27:16;52.35;;;17.30;;
66870;SDS011;53780;44.998;9.926;2022-10-26T18:30:22;58.08;;;17.92;;
66870;SDS011;53780;44.998;9.926;2022-10-26T18:33:27;67.43;;;20.88;;
66870;SDS011;53780;44.998;9.926;2022-10-26T18:36:30;74.65;;;21.13;;
66870;SDS011;53780;44.998;9.926;2022-10-26T18:39:35;79.57;;;21.30;;
66870;SDS011;53780;44.998;9.926;2022-10-26T18:42:38;52.45;;;18.67;;
66870;SDS011;53780;44.998;9.926;2022-10-26T18:45:42;41.60;;;15.85;;
66870;SDS011;53780;44.998;9.926;2022-10-26T18:48:46;32.17;;;13.55;;
66870;SDS011;53780;44.998;9.926;2022-10-26T18:51:50;30.92;;;12.32;;
66870;SDS011;53780;44.998;9.926;2022-10-26T18:54:54;29.40;;;12.30;;
66870;SDS011;53780;44.998;9.926;2022-10-26T18:57:58;32.58;;;11.60;;
66870;SDS011;53780;44.998;9.926;2022-10-26T19:01:04;29.65;;;12.55;;
66870;SDS011;53780;44.998;9.926;2022-10-26T19:04:09;27.75;;;11.68;;
66870;SDS011;53780;44.998;9.926;2022-10-26T19:07:13;27.92;;;12.25;;
66870;SDS011;53780;44.998;9.926;2022-10-26T19:10:17;34.73;;;13.87;;
66870;SDS011;53780;44.998;9.926;2022-10-26T19:13:21;33.05;;;13.73;;
66870;SDS011;53780;44.998;9.926;2022-10-26T19:16:27;28.40;;;12.98;;
66870;SDS011;53780;44.998;9.926;2022-10-26T19:19:34;28.30;;;13.23;;
66870;SDS011;53780;44.998;9.926;2022-10-26T19:22:39;30.38;;;13.23;;
66870;SDS011;53780;44.998;9.926;2022-10-26T19:25:43;29.60;;;13.57;;
66870;SDS011;53780;44.998;9.926;2022-10-26T19:29:01;28.10;;;12.70;;
66870;SDS011;53780;44.998;9.926;2022-10-26T19:32:08;34.15;;;13.65;;
66870;SDS011;53780;44.998;9.926;2022-10-26T19:35:13;35.38;;;13.73;;
66870;SDS011;53780;44.998;9.926;2022-10-26T19:38:20;33.67;;;13.70;;
66870;SDS011;53780;44.998;9.926;2022-10-26T19:41:48;29.97;;;13.40;;
66870;SDS011;53780;44.998;9.926;2022-10-26T19:44:52;28.05;;;13.52;;
66870;SDS011;53780;44.998;9.926;2022-10-26T19:51:32;29.98;;;13.15;;
66870;SDS011;53780;44.998;9.926;2022-10-26T19:58:40;27.43;;;12.50;;
66870;SDS011;53780;44.998;9.926;2022-10-26T20:01:45;29.38;;;13.63;;
66870;SDS011;53780;44.998;9.926;2022-10-26T20:04:49;30.23;;;13.65;;
66870;SDS011;53780;44.998;9.926;2022-10-26T20:07:53;37.22;;;14.38;;
66870;SDS011;53780;44.998;9.926;2022-10-26T20:10:57;32.15;;;14.75;;
66870;SDS011;53780;44.998;9.926;2022-10-26T20:14:01;29.43;;;14.40;;
66870;SDS011;53780;44.998;9.926;2022-10-26T20:21:15;33.03;;;14.20;;
66870;SDS011;53780;44.998;9.926;2022-10-26T20:24:19;31.27;;;13.82;;
66870;SDS011;53780;44.998;9.926;2022-10-26T20:27:32;37.00;;;14.50;;
66870;SDS011;53780;44.998;9.926;2022-10-26T20:30:36;32.43;;;14.50;;
66870;SDS011;53780;44.998;9.926;2022-10-26T20:33:41;30.45;;;13.98;;
66870;SDS011;53780;44.998;9.926;2022-10-26T20:36:44;32.70;;;14.35;;
66870;SDS011;53780;44.998;9.926;2022-10-26T20:39:48;36.80;;;15.10;;
66870;SDS011;53780;44.998;9.926;2022-10-26T20:42:55;32.70;;;14.52;;
66870;SDS011;53780;44.998;9.926;2022-10-26T20:45:59;32.53;;;13.90;;
66870;SDS011;53780;44.998;9.926;2022-10-26T20:49:04;35.03;;;14.13;;
66870;SDS011;53780;44.998;9.926;2022-10-26T20:52:13;34.92;;;14.40;;
66870;SDS011;53780;44.998;9.926;2022-10-26T20:58:56;31.15;;;13.93;;
66870;SDS011;53780;44.998;9.926;2022-10-26T21:02:03;30.63;;;13.77;;
66870;SDS011;53780;44.998;9.926;2022-10-26T21:05:07;32.28;;;13.75;;
66870;SDS011;53780;44.998;9.926;2022-10-26T21:08:11;30.67;;;14.25;;
66870;SDS011;53780;44.998;9.926;2022-10-26T21:11:15;30.83;;;14.07;;
66870;SDS011;53780;44.998;9.926;2022-10-26T21:14:20;34.45;;;14.85;;
66870;SDS011;53780;44.998;9.926;2022-10-26T21:17:24;31.73;;;14.27;;
66870;SDS011;53780;44.998;9.926;2022-10-26T21:20:28;32.42;;;14.73;;
66870;SDS011;53780;44.998;9.926;2022-10-26T21:23:37;32.28;;;14.52;;
66870;SDS011;53780;44.998;9.926;2022-10-26T21:26:43;32.88;;;14.38;;
66870;SDS011;53780;44.998;9.926;2022-10-26T21:33:23;35.20;;;15.00;;
66870;SDS011;53780;44.998;9.926;2022-10-26T21:36:34;30.42;;;14.20;;
66870;SDS011;53780;44.998;9.926;2022-10-26T21:39:37;31.83;;;14.55;;
66870;SDS011;53780;44.998;9.926;2022-10-26T21:42:41;33.35;;;14.68;;
66870;SDS011;53780;44.998;9.926;2022-10-26T21:45:55;28.98;;;14.35;;
66870;SDS011;53780;44.998;9.926;2022-10-26T21:52:39;29.60;;;13.50;;
66870;SDS011;53780;44.998;9.926;2022-10-26T21:55:43;30.48;;;14.20;;
66870;SDS011;53780;44.998;9.926;2022-10-26T21:58:47;34.85;;;13.98;;
66870;SDS011;53780;44.998;9.926;2022-10-26T22:01:51;37.08;;;13.95;;
66870;SDS011;53780;44.998;9.926;2022-10-26T22:04:55;29.53;;;14.17;;
66870;SDS011;53780;44.998;9.926;2022-10-26T22:07:59;30.15;;;13.88;;
66870;SDS011;53780;44.998;9.926;2022-10-26T22:11:07;32.88;;;14.27;;
66870;SDS011;53780;44.998;9.926;2022-10-26T22:14:13;30.88;;;14.50;;
66870;SDS011;53780;44.998;9.926;2022-10-26T22:17:17;35.22;;;14.77;;
66870;SDS011;53780;44.998;9.926;2022-10-26T22:20:21;31.47;;;14.23;;
66870;SDS011;53780;44.998;9.926;2022-10-26T22:23:25;33.22;;;15.00;;
66870;SDS011;53780;44.998;9.926;2022-10-26T22:26:30;31.10;;;14.88;;
66870;SDS011;53780;44.998;9.926;2022-10-26T22:29:35;32.88;;;14.65;;
66870;SDS011;53780;44.998;9.926;2022-10-26T22:32:39;40.50;;;14.52;;
66870;SDS011;53780;44.998;9.926;2022-10-26T22:35:43;32.93;;;14.67;;
66870;SDS011;53780;44.998;9.926;2022-10-26T22:38:47;32.05;;;14.55;;
66870;SDS011;53780;44.998;9.926;2022-10-26T22:41:51;34.42;;;14.32;;
66870;SDS011;53780;44.998;9.926;2022-10-26T22:44:55;34.88;;;14.75;;
66870;SDS011;53780;44.998;9.926;2022-10-26T22:47:59;32.78;;;15.35;;
66870;SDS011;53780;44.998;9.926;2022-10-26T22:51:07;32.13;;;14.80;;
66870;SDS011;53780;44.998;9.926;2022-10-26T22:54:12;33.72;;;15.48;;
66870;SDS011;53780;44.998;9.926;2022-10-26T22:57:16;32.38;;;14.60;;
66870;SDS011;53780;44.998;9.926;2022-10-26T23:00:20;34.05;;;14.73;;
66870;SDS011;53780;44.998;9.926;2022-10-26T23:03:24;31.17;;;14.18;;
66870;SDS011;53780;44.998;9.926;2022-10-26T23:06:30;32.97;;;15.03;;
66870;SDS011;53780;44.998;9.926;2022-10-26T23:09:34;31.73;;;14.70;;
66870;SDS011;53780;44.998;9.926;2022-10-26T23:12:38;30.45;;;14.02;;
66870;SDS011;53780;44.998;9.926;2022-10-26T23:15:42;37.33;;;15.25;;
66870;SDS011;53780;44.998;9.926;2022-10-26T23:18:46;34.88;;;14.48;;
66870;SDS011;53780;44.998;9.926;2022-10-26T23:21:50;32.07;;;13.90;;
66870;SDS011;53780;44.998;9.926;2022-10-26T23:24:54;31.70;;;14.80;;
66870;SDS011;53780;44.998;9.926;2022-10-26T23:27:58;32.97;;;14.52;;
66870;SDS011;53780;44.998;9.926;2022-10-26T23:31:02;32.08;;;14.68;;
66870;SDS011;53780;44.998;9.926;2022-10-26T23:34:07;35.78;;;14.80;;
66870;SDS011;53780;44.998;9.926;2022-10-26T23:37:11;33.30;;;15.47;;
66870;SDS011;53780;44.998;9.926;2022-10-26T23:40:15;33.35;;;14.18;;
66870;SDS011;53780;44.998;9.926;2022-10-26T23:43:19;32.20;;;15.15;;
66870;SDS011;53780;44.998;9.926;2022-10-26T23:46:23;38.15;;;15.13;;
66870;SDS011;53780;44.998;9.926;2022-10-26T23:49:27;34.75;;;15.63;;
66870;SDS011;53780;44.998;9.926;2022-10-26T23:52:30;36.27;;;16.50;;
66870;SDS011;53780;44.998;9.926;2022-10-26T23:55:34;38.70;;;16.75;;
66870;SDS011;53780;44.998;9.926;2022-10-26T23:58:38;43.70;;;16.52;;
